createdAt,value
2017-10-17T00:01:40.467Z,4.40
2017-10-17T00:04:06.798Z,4.53
2017-10-17T00:06:33.143Z,4.37
2017-10-17T00:08:59.470Z,4.80
2017-10-17T00:11:25.808Z,4.50
2017-10-17T00:13:52.905Z,5.23
2017-10-17T00:16:19.275Z,4.17
2017-10-17T00:18:45.639Z,4.20
2017-10-17T00:21:11.979Z,4.00
2017-10-17T00:23:38.310Z,3.63
2017-10-17T00:26:04.654Z,3.73
2017-10-17T00:28:31.022Z,3.70
2017-10-17T00:30:57.382Z,3.50
2017-10-17T00:33:25.006Z,4.00
2017-10-17T00:35:58.178Z,3.20
2017-10-17T00:38:24.526Z,3.90
2017-10-17T00:40:50.866Z,3.30
2017-10-17T00:43:17.209Z,3.60
2017-10-17T00:45:44.532Z,3.83
2017-10-17T00:48:22.898Z,3.40
2017-10-17T00:50:49.378Z,3.67
2017-10-17T00:53:15.731Z,3.30
2017-10-17T00:55:42.086Z,3.97
2017-10-17T00:58:09.171Z,3.00
2017-10-17T01:00:35.512Z,3.53
2017-10-17T01:03:01.866Z,2.97
2017-10-17T01:05:28.235Z,3.03
2017-10-17T01:07:54.578Z,3.00
2017-10-17T01:10:20.942Z,2.70
2017-10-17T01:12:47.301Z,3.03
2017-10-17T01:15:13.642Z,3.20
2017-10-17T01:17:40.734Z,2.67
2017-10-17T01:20:09.042Z,3.13
2017-10-17T01:22:35.411Z,3.00
2017-10-17T01:25:01.742Z,2.50
2017-10-17T01:27:28.103Z,3.47
2017-10-17T01:29:55.492Z,2.97
2017-10-17T01:32:21.827Z,3.43
2017-10-17T01:34:51.946Z,2.90
2017-10-17T01:37:18.297Z,2.50
2017-10-17T01:39:55.297Z,3.17
2017-10-17T01:42:36.503Z,3.43
2017-10-17T01:45:04.618Z,3.43
2017-10-17T01:47:32.127Z,3.83
2017-10-17T01:49:59.429Z,3.37
2017-10-17T01:52:27.341Z,2.83
2017-10-17T01:54:54.500Z,3.20
2017-10-17T01:57:20.947Z,3.50
2017-10-17T01:59:52.095Z,3.10
2017-10-17T02:02:18.439Z,3.40
2017-10-17T02:04:44.807Z,3.23
2017-10-17T02:07:11.253Z,3.10
2017-10-17T02:09:41.362Z,3.50
2017-10-17T02:12:08.708Z,3.17
2017-10-17T02:14:35.062Z,3.33
2017-10-17T02:17:01.434Z,3.60
2017-10-17T02:19:27.862Z,3.37
2017-10-17T02:21:55.994Z,4.47
2017-10-17T02:24:23.378Z,3.83
2017-10-17T02:26:49.751Z,2.73
2017-10-17T02:29:23.556Z,4.00
2017-10-17T02:31:50.675Z,3.30
2017-10-17T02:34:43.808Z,3.47
2017-10-17T02:37:10.192Z,3.07
2017-10-17T02:39:37.282Z,3.10
2017-10-17T02:42:03.629Z,3.37
2017-10-17T02:44:30.002Z,2.77
2017-10-17T02:46:57.093Z,2.90
2017-10-17T02:49:25.429Z,3.13
2017-10-17T02:51:52.526Z,3.60
2017-10-17T02:54:19.749Z,3.43
2017-10-17T02:56:46.081Z,3.30
2017-10-17T02:59:14.382Z,3.10
2017-10-17T03:01:51.466Z,3.17
2017-10-17T03:04:18.710Z,2.93
2017-10-17T03:06:45.072Z,3.13
2017-10-17T03:09:11.406Z,3.90
2017-10-17T03:11:37.738Z,3.80
2017-10-17T03:14:19.966Z,3.07
2017-10-17T03:16:47.047Z,2.90
2017-10-17T03:19:13.391Z,3.07
2017-10-17T03:21:47.445Z,3.60
2017-10-17T03:24:21.351Z,3.07
2017-10-17T03:26:48.448Z,3.63
2017-10-17T03:29:14.782Z,2.97
2017-10-17T03:31:41.114Z,2.90
2017-10-17T03:34:13.394Z,2.53
2017-10-17T03:36:42.523Z,2.70
2017-10-17T03:39:09.608Z,3.20
2017-10-17T03:41:35.955Z,2.90
2017-10-17T03:44:12.982Z,2.80
2017-10-17T03:46:41.765Z,2.67
2017-10-17T03:49:14.704Z,2.73
2017-10-17T03:51:41.042Z,3.80
2017-10-17T03:54:10.311Z,3.23
2017-10-17T03:56:36.652Z,3.50
2017-10-17T03:59:03.826Z,3.80
2017-10-17T04:01:30.463Z,3.03
2017-10-17T04:04:09.677Z,3.30
2017-10-17T04:06:45.903Z,3.40
2017-10-17T04:09:12.238Z,2.87
2017-10-17T04:11:39.645Z,2.50
2017-10-17T04:17:14.243Z,3.50
2017-10-17T04:20:10.473Z,2.95
2017-10-17T04:22:40.658Z,2.90
2017-10-17T04:28:01.622Z,3.27
2017-10-17T04:30:35.699Z,2.50
2017-10-17T04:36:13.111Z,2.70
2017-10-17T04:38:40.228Z,2.83
2017-10-17T04:41:08.462Z,3.50
2017-10-17T04:44:09.670Z,3.03
2017-10-17T04:46:51.922Z,3.03
2017-10-17T04:52:27.445Z,3.12
2017-10-17T04:54:53.819Z,3.80
2017-10-17T04:57:23.011Z,2.80
2017-10-17T04:59:55.171Z,3.47
2017-10-17T05:02:30.241Z,3.60
2017-10-17T05:04:58.235Z,3.60
2017-10-17T05:07:26.263Z,4.00
2017-10-17T05:09:56.460Z,4.23
2017-10-17T05:12:24.660Z,3.80
2017-10-17T05:14:51.035Z,4.00
2017-10-17T05:17:22.151Z,4.18
2017-10-17T05:19:54.668Z,3.35
2017-10-17T05:22:28.574Z,3.30
2017-10-17T05:24:58.498Z,4.05
2017-10-17T05:27:41.499Z,5.90
2017-10-17T05:30:12.839Z,4.28
2017-10-17T05:32:40.203Z,4.15
2017-10-17T05:35:08.342Z,3.35
2017-10-17T05:37:34.711Z,4.53
2017-10-17T05:40:04.649Z,3.37
2017-10-17T05:42:35.763Z,3.72
2017-10-17T05:45:03.107Z,3.28
2017-10-17T05:47:49.524Z,3.85
2017-10-17T05:50:19.569Z,3.75
2017-10-17T05:52:47.634Z,3.10
2017-10-17T05:55:13.962Z,3.67
2017-10-17T05:57:40.286Z,3.15
2017-10-17T06:00:07.367Z,3.13
2017-10-17T06:02:33.683Z,3.33
2017-10-17T06:05:00.000Z,3.00
2017-10-17T06:07:26.319Z,3.00
2017-10-17T06:09:53.384Z,3.43
2017-10-17T06:12:19.714Z,3.33
2017-10-17T06:14:46.047Z,2.50
2017-10-17T06:17:12.373Z,4.60
2017-10-17T06:19:40.455Z,3.63
2017-10-17T06:22:06.763Z,3.00
2017-10-17T06:24:33.847Z,3.50
2017-10-17T06:27:00.163Z,3.57
2017-10-17T06:29:27.219Z,3.17
2017-10-17T06:31:53.526Z,3.47
2017-10-17T06:34:19.846Z,3.65
2017-10-17T06:36:46.919Z,4.10
2017-10-17T06:39:13.978Z,3.23
2017-10-17T06:41:40.317Z,2.10
2017-10-17T06:44:06.652Z,3.17
2017-10-17T06:46:33.006Z,2.73
2017-10-17T06:48:59.354Z,2.70
2017-10-17T06:51:26.437Z,3.30
2017-10-17T06:53:52.746Z,3.03
2017-10-17T06:56:19.811Z,4.83
2017-10-17T06:58:46.143Z,3.00
2017-10-17T07:01:12.489Z,3.47
2017-10-17T07:03:39.809Z,3.10
2017-10-17T07:06:06.877Z,3.33
2017-10-17T07:08:34.213Z,3.47
2017-10-17T07:11:01.546Z,3.07
2017-10-17T07:13:28.610Z,2.93
2017-10-17T07:15:55.702Z,2.90
2017-10-17T07:18:22.018Z,2.93
2017-10-17T07:20:48.322Z,2.50
2017-10-17T07:23:15.623Z,2.63
2017-10-17T07:25:41.948Z,2.50
2017-10-17T07:28:08.290Z,2.17
2017-10-17T07:30:34.654Z,2.37
2017-10-17T07:33:01.746Z,3.10
2017-10-17T07:35:28.116Z,2.60
2017-10-17T07:37:54.471Z,3.33
2017-10-17T07:40:21.547Z,2.93
2017-10-17T07:42:47.847Z,2.90
2017-10-17T07:45:14.198Z,3.00
2017-10-17T07:47:41.539Z,3.30
2017-10-17T07:50:07.890Z,2.83
2017-10-17T07:52:34.246Z,2.33
2017-10-17T07:55:00.579Z,2.90
2017-10-17T07:57:26.891Z,3.70
2017-10-17T07:59:53.219Z,2.87
2017-10-17T08:02:19.559Z,3.23
2017-10-17T08:04:45.948Z,2.63
2017-10-17T08:07:12.305Z,2.77
2017-10-17T08:09:38.644Z,2.93
2017-10-17T08:12:04.995Z,3.23
2017-10-17T08:14:31.310Z,3.00
2017-10-17T08:16:57.631Z,3.03
2017-10-17T08:19:23.939Z,3.03
2017-10-17T08:21:50.258Z,2.60
2017-10-17T08:24:17.317Z,3.10
2017-10-17T08:26:43.638Z,3.00
2017-10-17T08:29:10.715Z,2.43
2017-10-17T08:31:37.054Z,2.70
2017-10-17T08:34:03.374Z,2.53
2017-10-17T08:36:29.685Z,3.43
2017-10-17T08:38:56.002Z,2.07
2017-10-17T08:41:23.067Z,2.50
2017-10-17T08:43:49.387Z,2.73
2017-10-17T08:46:15.706Z,2.30
2017-10-17T08:48:42.054Z,2.80
2017-10-17T08:51:08.387Z,3.17
2017-10-17T08:53:34.723Z,2.60
2017-10-17T08:56:01.106Z,2.37
2017-10-17T08:58:27.411Z,2.20
2017-10-17T09:00:53.732Z,2.43
2017-10-17T09:03:20.038Z,2.60
2017-10-17T09:05:46.338Z,2.30
2017-10-17T09:08:13.394Z,2.70
2017-10-17T09:10:40.523Z,2.47
2017-10-17T09:13:06.827Z,2.00
2017-10-17T09:15:33.136Z,2.60
2017-10-17T09:17:59.471Z,2.30
2017-10-17T09:20:25.778Z,2.60
2017-10-17T09:22:52.095Z,2.43
2017-10-17T09:25:19.151Z,2.23
2017-10-17T09:27:45.479Z,2.10
2017-10-17T09:30:11.779Z,2.10
2017-10-17T09:32:38.090Z,2.10
2017-10-17T09:35:04.459Z,1.93
2017-10-17T09:37:32.575Z,2.37
2017-10-17T09:39:58.898Z,2.60
2017-10-17T09:42:26.259Z,1.93
2017-10-17T09:44:52.574Z,1.67
2017-10-17T09:47:18.900Z,2.00
2017-10-17T09:49:45.227Z,1.97
2017-10-17T09:52:11.527Z,2.30
2017-10-17T09:54:38.582Z,2.00
2017-10-17T09:57:05.626Z,1.63
2017-10-17T09:59:32.668Z,2.10
2017-10-17T10:01:59.723Z,2.13
2017-10-17T10:04:26.795Z,1.90
2017-10-17T10:06:53.145Z,2.30
2017-10-17T10:09:19.482Z,2.00
2017-10-17T10:11:45.802Z,2.03
2017-10-17T10:14:12.106Z,2.17
2017-10-17T10:16:39.426Z,1.70
2017-10-17T10:19:05.727Z,1.80
2017-10-17T10:21:32.051Z,2.27
2017-10-17T10:23:58.394Z,2.33
2017-10-17T10:26:24.746Z,1.67
2017-10-17T10:28:51.058Z,2.27
2017-10-17T10:31:17.366Z,2.03
2017-10-17T10:33:43.684Z,1.90
2017-10-17T10:36:10.013Z,2.00
2017-10-17T10:38:36.317Z,2.00
2017-10-17T10:41:03.402Z,2.20
2017-10-17T10:43:29.710Z,2.27
2017-10-17T10:45:56.015Z,2.10
2017-10-17T10:48:23.090Z,2.03
2017-10-17T10:50:49.418Z,2.00
2017-10-17T10:53:15.732Z,2.03
2017-10-17T10:55:42.778Z,2.40
2017-10-17T10:58:09.861Z,2.10
2017-10-17T11:00:36.163Z,2.60
2017-10-17T11:03:02.565Z,2.07
2017-10-17T11:05:29.635Z,2.10
2017-10-17T11:07:56.689Z,2.20
2017-10-17T11:10:23.007Z,2.07
2017-10-17T11:12:50.058Z,2.50
2017-10-17T11:15:17.098Z,2.30
2017-10-17T11:17:44.148Z,2.73
2017-10-17T11:20:11.194Z,2.30
2017-10-17T11:22:38.265Z,2.47
2017-10-17T11:25:04.580Z,2.00
2017-10-17T11:27:31.920Z,2.20
2017-10-17T11:29:59.010Z,2.43
2017-10-17T11:32:25.846Z,2.60
2017-10-17T11:34:52.182Z,2.40
2017-10-17T11:37:18.487Z,2.20
2017-10-17T11:39:44.814Z,2.20
2017-10-17T11:42:23.290Z,2.27
2017-10-17T11:44:49.630Z,2.53
2017-10-17T11:47:16.000Z,2.10
2017-10-17T11:49:42.398Z,3.17
2017-10-17T11:52:09.492Z,2.80
2017-10-17T11:54:35.822Z,2.37
2017-10-17T11:57:02.152Z,2.27
2017-10-17T11:59:28.489Z,2.37
2017-10-17T12:01:54.834Z,2.20
2017-10-17T12:04:21.145Z,2.03
2017-10-17T12:06:48.530Z,2.37
2017-10-17T12:09:14.869Z,2.40
2017-10-17T12:11:41.196Z,2.77
2017-10-17T12:14:07.538Z,2.30
2017-10-17T12:16:33.895Z,3.00
2017-10-17T12:19:00.210Z,2.60
2017-10-17T12:21:27.315Z,3.13
2017-10-17T12:23:53.650Z,2.20
2017-10-17T12:26:19.979Z,2.10
2017-10-17T12:28:46.345Z,2.67
2017-10-17T12:31:13.423Z,2.13
2017-10-17T12:33:39.756Z,2.30
2017-10-17T12:36:06.092Z,2.33
2017-10-17T12:38:32.419Z,2.70
2017-10-17T12:40:58.737Z,2.93
2017-10-17T12:43:25.054Z,3.23
2017-10-17T12:45:52.102Z,2.77
2017-10-17T12:48:19.170Z,3.27
2017-10-17T12:50:45.482Z,2.70
2017-10-17T12:53:13.538Z,3.17
2017-10-17T12:55:40.595Z,2.73
2017-10-17T12:58:07.680Z,2.50
2017-10-17T13:00:34.775Z,3.20
2017-10-17T13:03:01.106Z,3.20
2017-10-17T13:05:27.415Z,3.00
2017-10-17T13:07:53.746Z,2.20
2017-10-17T13:10:20.087Z,2.70
2017-10-17T13:12:46.394Z,2.70
2017-10-17T13:15:12.734Z,2.57
2017-10-17T13:17:39.069Z,3.30
2017-10-17T13:20:05.410Z,2.80
2017-10-17T13:22:31.742Z,2.70
2017-10-17T13:24:58.066Z,2.53
2017-10-17T13:27:24.395Z,2.60
2017-10-17T13:29:51.721Z,2.77
2017-10-17T13:32:18.047Z,2.40
2017-10-17T13:34:45.095Z,2.47
2017-10-17T13:37:11.399Z,2.60
2017-10-17T13:39:37.754Z,2.70
2017-10-17T13:42:04.075Z,2.90
2017-10-17T13:44:30.379Z,3.20
2017-10-17T13:46:56.741Z,2.70
2017-10-17T13:49:23.058Z,2.53
2017-10-17T13:51:49.379Z,2.93
2017-10-17T13:54:16.678Z,2.73
2017-10-17T13:56:42.994Z,2.60
2017-10-17T13:59:09.305Z,2.40
2017-10-17T14:01:35.643Z,2.80
2017-10-17T14:04:01.950Z,2.70
2017-10-17T14:06:29.291Z,2.90
2017-10-17T14:08:56.400Z,2.63
2017-10-17T14:11:22.754Z,2.73
2017-10-17T14:13:49.933Z,3.30
2017-10-17T14:16:16.293Z,3.13
2017-10-17T14:18:42.625Z,2.70
2017-10-17T14:21:08.978Z,2.63
2017-10-17T14:23:35.328Z,2.00
2017-10-17T14:26:02.382Z,2.20
2017-10-17T14:28:29.470Z,2.67
2017-10-17T14:30:55.832Z,2.73
2017-10-17T14:33:22.450Z,2.47
2017-10-17T14:35:48.768Z,2.93
2017-10-17T14:38:15.073Z,2.00
2017-10-17T14:40:41.392Z,2.97
2017-10-17T14:43:08.447Z,2.80
2017-10-17T14:45:34.820Z,3.13
2017-10-17T14:48:01.170Z,3.03
2017-10-17T14:50:27.498Z,2.27
2017-10-17T14:52:53.830Z,2.60
2017-10-17T14:55:20.158Z,2.13
2017-10-17T14:57:46.469Z,2.97
2017-10-17T15:00:12.790Z,2.77
2017-10-17T15:02:39.110Z,2.70
2017-10-17T15:05:05.380Z,2.37
2017-10-17T15:07:31.687Z,2.67
2017-10-17T15:09:58.006Z,2.90
2017-10-17T15:12:24.278Z,2.97
2017-10-17T15:14:50.550Z,3.30
2017-10-17T15:17:16.859Z,2.80
2017-10-17T15:19:43.874Z,2.60
2017-10-17T15:22:10.190Z,2.90
2017-10-17T15:24:36.505Z,3.20
2017-10-17T15:27:02.782Z,2.53
2017-10-17T15:29:29.826Z,2.90
2017-10-17T15:31:56.871Z,2.93
2017-10-17T15:34:23.887Z,3.20
2017-10-17T15:36:50.154Z,3.60
2017-10-17T15:39:17.222Z,5.10
2017-10-17T15:41:43.530Z,3.23
2017-10-17T15:44:10.536Z,4.33
2017-10-17T15:46:36.850Z,4.30
2017-10-17T15:49:03.135Z,4.37
2017-10-17T15:51:31.215Z,5.77
2017-10-17T15:53:58.233Z,3.10
2017-10-17T15:56:24.538Z,3.47
2017-10-17T15:58:50.850Z,3.30
2017-10-17T16:01:17.139Z,4.20
2017-10-17T16:03:44.144Z,3.50
2017-10-17T16:06:10.452Z,3.67
2017-10-17T16:08:36.722Z,3.70
2017-10-17T16:11:03.015Z,3.37
2017-10-17T16:13:29.302Z,3.87
2017-10-17T16:15:56.346Z,3.40
2017-10-17T16:18:23.359Z,3.50
2017-10-17T16:20:49.674Z,3.73
2017-10-17T16:23:15.953Z,2.80
2017-10-17T16:25:43.983Z,3.20
2017-10-17T16:28:10.374Z,4.37
2017-10-17T16:30:37.775Z,3.57
2017-10-17T16:33:04.143Z,3.03
2017-10-17T16:35:31.227Z,3.37
2017-10-17T16:37:57.604Z,3.20
2017-10-17T16:40:23.996Z,3.63
2017-10-17T16:42:50.323Z,3.40
2017-10-17T16:45:16.631Z,3.47
2017-10-17T16:47:42.952Z,3.80
2017-10-17T16:50:09.279Z,3.63
2017-10-17T16:52:35.547Z,3.50
2017-10-17T16:55:01.925Z,3.70
2017-10-17T16:57:29.082Z,3.03
2017-10-17T16:59:56.150Z,3.40
2017-10-17T17:02:23.234Z,3.20
2017-10-17T17:04:49.593Z,3.80
2017-10-17T17:07:15.911Z,5.77
2017-10-17T17:09:42.238Z,3.07
2017-10-17T17:12:08.523Z,4.00
2017-10-17T17:14:34.877Z,3.40
2017-10-17T17:17:01.164Z,2.90
2017-10-17T17:19:27.439Z,2.80
2017-10-17T17:21:53.770Z,3.20
2017-10-17T17:24:20.084Z,2.70
2017-10-17T17:26:46.390Z,3.60
2017-10-17T17:29:12.723Z,3.30
2017-10-17T17:31:39.051Z,3.20
2017-10-17T17:34:05.314Z,3.23
2017-10-17T17:36:31.609Z,3.00
2017-10-17T17:38:57.906Z,3.20
2017-10-17T17:41:24.231Z,2.50
2017-10-17T17:43:50.531Z,3.20
2017-10-17T17:46:16.841Z,3.10
2017-10-17T17:48:43.139Z,3.10
2017-10-17T17:51:10.207Z,3.47
2017-10-17T17:53:36.494Z,5.57
2017-10-17T17:56:02.823Z,3.63
2017-10-17T17:58:29.090Z,2.80
2017-10-17T18:00:55.420Z,2.73
2017-10-17T18:03:21.719Z,3.40
2017-10-17T18:05:48.012Z,3.30
2017-10-17T18:08:14.318Z,3.37
2017-10-17T18:10:40.668Z,3.10
2017-10-17T18:13:06.950Z,3.70
2017-10-17T18:15:33.987Z,2.57
2017-10-17T18:18:00.288Z,3.10
2017-10-17T18:20:26.630Z,3.67
2017-10-17T18:22:52.946Z,3.40
2017-10-17T18:25:19.232Z,3.53
2017-10-17T18:27:45.539Z,3.10
2017-10-17T18:30:12.603Z,3.00
2017-10-17T18:32:38.911Z,2.70
2017-10-17T18:35:05.190Z,2.43
2017-10-17T18:37:31.539Z,2.80
2017-10-17T18:39:58.137Z,4.03
2017-10-17T18:42:24.431Z,3.20
2017-10-17T18:44:50.726Z,3.30
2017-10-17T18:47:17.018Z,3.23
2017-10-17T18:49:43.339Z,2.77
2017-10-17T18:52:10.363Z,3.47
2017-10-17T18:54:36.690Z,3.40
2017-10-17T18:57:03.000Z,3.10
2017-10-17T18:59:29.261Z,4.07
2017-10-17T19:01:55.624Z,4.50
2017-10-17T19:04:21.891Z,3.77
2017-10-17T19:06:48.207Z,3.63
2017-10-17T19:09:14.514Z,4.03
2017-10-17T19:11:40.799Z,4.40
2017-10-17T19:14:07.074Z,4.97
2017-10-17T19:16:33.379Z,4.13
2017-10-17T19:19:00.430Z,4.67
2017-10-17T19:21:27.448Z,4.63
2017-10-17T19:23:53.739Z,3.70
2017-10-17T19:26:20.033Z,3.27
2017-10-17T19:28:47.056Z,3.60
2017-10-17T19:31:13.358Z,4.43
2017-10-17T19:33:39.664Z,3.33
2017-10-17T19:36:05.981Z,3.70
2017-10-17T19:38:32.274Z,4.30
2017-10-17T19:40:58.580Z,4.67
2017-10-17T19:43:24.902Z,4.70
2017-10-17T19:45:51.226Z,4.07
2017-10-17T19:48:17.493Z,4.23
2017-10-17T19:50:43.779Z,5.00
2017-10-17T19:53:10.074Z,6.27
2017-10-17T19:55:37.133Z,5.00
2017-10-17T19:58:03.431Z,4.30
2017-10-17T20:00:30.555Z,3.23
2017-10-17T20:02:56.880Z,4.00
2017-10-17T20:05:23.162Z,3.87
2017-10-17T20:07:50.239Z,3.37
2017-10-17T20:10:16.538Z,3.53
2017-10-17T20:12:43.587Z,3.50
2017-10-17T20:15:11.681Z,3.03
2017-10-17T20:17:38.611Z,2.90
2017-10-17T20:20:04.946Z,3.90
2017-10-17T20:22:31.269Z,4.03
2017-10-17T20:24:57.584Z,5.00
2017-10-17T20:27:24.710Z,3.97
2017-10-17T20:29:51.059Z,3.67
2017-10-17T20:32:18.203Z,3.97
2017-10-17T20:34:45.278Z,4.20
2017-10-17T20:37:11.741Z,3.80
2017-10-17T20:39:38.218Z,3.63
2017-10-17T20:42:05.317Z,3.93
2017-10-17T20:44:31.651Z,4.17
2017-10-17T20:46:58.014Z,4.17
2017-10-17T20:49:24.315Z,4.20
2017-10-17T20:51:52.237Z,3.70
2017-10-17T20:54:19.272Z,4.43
2017-10-17T20:56:46.584Z,4.17
2017-10-17T20:59:12.866Z,4.30
2017-10-17T21:01:39.910Z,3.57
2017-10-17T21:04:06.948Z,5.03
2017-10-17T21:06:34.039Z,4.80
2017-10-17T21:09:00.338Z,4.37
2017-10-17T21:11:28.026Z,4.30
2017-10-17T21:13:54.325Z,4.07
2017-10-17T21:16:21.419Z,4.50
2017-10-17T21:18:47.739Z,4.57
2017-10-17T21:21:14.047Z,4.67
2017-10-17T21:23:40.407Z,4.77
2017-10-17T21:26:06.717Z,5.00
2017-10-17T21:28:33.040Z,4.67
2017-10-17T21:30:59.380Z,4.60
2017-10-17T21:33:25.738Z,5.20
2017-10-17T21:35:52.072Z,4.50
2017-10-17T21:38:18.350Z,4.80
2017-10-17T21:40:45.399Z,5.40
2017-10-17T21:43:11.686Z,4.47
2017-10-17T21:45:38.003Z,4.37
2017-10-17T21:48:04.387Z,4.07
2017-10-17T21:50:31.398Z,4.47
2017-10-17T21:52:58.694Z,4.20
2017-10-17T21:55:24.970Z,4.97
2017-10-17T21:57:53.544Z,4.57
2017-10-17T22:00:33.781Z,5.03
2017-10-17T22:03:00.054Z,4.57
2017-10-17T22:05:26.343Z,4.10
2017-10-17T22:07:52.647Z,4.23
2017-10-17T22:10:18.956Z,4.10
2017-10-17T22:12:46.986Z,3.70
2017-10-17T22:15:13.321Z,3.97
2017-10-17T22:17:39.679Z,4.53
2017-10-17T22:20:05.958Z,5.00
2017-10-17T22:22:32.272Z,4.13
2017-10-17T22:24:58.546Z,4.20
2017-10-17T22:27:24.834Z,4.50
2017-10-17T22:29:51.139Z,4.70
2017-10-17T22:32:18.215Z,4.43
2017-10-17T22:34:44.555Z,4.90
2017-10-17T22:37:10.862Z,5.50
2017-10-17T22:39:37.191Z,4.37
2017-10-17T22:42:03.500Z,4.90
2017-10-17T22:44:30.599Z,5.10
2017-10-17T22:46:56.894Z,4.90
2017-10-17T22:49:23.198Z,4.80
2017-10-17T22:51:49.510Z,4.13
2017-10-17T22:54:15.797Z,4.63
2017-10-17T22:56:42.071Z,4.07
2017-10-17T22:59:08.398Z,4.50
2017-10-17T23:01:34.711Z,3.70
2017-10-17T23:04:00.996Z,4.10
2017-10-17T23:06:27.328Z,4.53
2017-10-17T23:08:54.303Z,5.40
2017-10-17T23:11:20.594Z,4.30
2017-10-17T23:13:47.641Z,4.30
2017-10-17T23:16:14.675Z,5.03
2017-10-17T23:18:54.051Z,5.25
2017-10-17T23:21:20.351Z,5.50
2017-10-17T23:23:46.628Z,4.45
2017-10-17T23:26:12.929Z,4.90
2017-10-17T23:28:39.230Z,5.00
2017-10-17T23:31:06.278Z,3.93
2017-10-17T23:33:33.310Z,3.70
2017-10-17T23:35:59.610Z,4.50
2017-10-17T23:38:25.903Z,4.60
2017-10-17T23:40:52.201Z,4.53
2017-10-17T23:43:18.478Z,4.30
2017-10-17T23:45:44.789Z,4.60
2017-10-17T23:48:11.812Z,5.07
2017-10-17T23:50:38.110Z,4.57
2017-10-17T23:53:04.394Z,4.80
2017-10-17T23:55:30.671Z,5.60
2017-10-17T23:57:56.991Z,4.50
